createdAt,value
2022-09-25T00:01:16.021Z,6.40
2022-09-25T00:03:43.940Z,3.58
2022-09-25T00:06:26.041Z,4.65
2022-09-25T00:08:54.661Z,6.15
2022-09-25T00:11:33.159Z,5.88
2022-09-25T00:14:02.183Z,4.20
2022-09-25T00:16:31.957Z,9.82
2022-09-25T00:19:18.603Z,5.22
2022-09-25T00:21:47.197Z,6.22
2022-09-25T00:24:15.419Z,5.28
2022-09-25T00:26:43.773Z,6.10
2022-09-25T00:29:21.036Z,4.60
2022-09-25T00:31:48.331Z,4.40
2022-09-25T00:34:18.135Z,3.97
2022-09-25T00:36:45.453Z,3.92
2022-09-25T00:39:12.829Z,5.78
2022-09-25T00:41:40.325Z,5.57
2022-09-25T00:44:46.065Z,4.93
2022-09-25T00:47:18.089Z,3.88
2022-09-25T00:49:46.395Z,4.63
2022-09-25T00:52:14.607Z,5.20
2022-09-25T00:54:49.339Z,4.95
2022-09-25T00:57:22.307Z,4.80
2022-09-25T00:59:57.727Z,6.78
2022-09-25T01:02:29.538Z,4.32
2022-09-25T01:05:05.097Z,5.20
2022-09-25T01:07:37.103Z,5.30
2022-09-25T01:10:08.404Z,5.50
2022-09-25T01:12:45.165Z,4.22
2022-09-25T01:15:15.333Z,5.28
2022-09-25T01:18:03.920Z,3.60
2022-09-25T01:20:49.084Z,4.15
2022-09-25T01:23:30.244Z,4.45
2022-09-25T01:26:47.171Z,4.45
2022-09-25T01:29:37.170Z,2.75
2022-09-25T01:32:14.273Z,3.78
2022-09-25T01:35:07.107Z,5.55
2022-09-25T01:37:49.042Z,5.30
2022-09-25T01:40:19.298Z,5.90
2022-09-25T01:42:53.278Z,3.40
2022-09-25T01:45:36.946Z,6.13
2022-09-25T01:48:08.194Z,6.60
2022-09-25T01:50:43.395Z,6.35
2022-09-25T01:53:16.390Z,3.60
2022-09-25T01:55:58.309Z,3.33
2022-09-25T01:58:32.326Z,4.00
2022-09-25T02:01:06.881Z,5.05
2022-09-25T02:03:44.441Z,3.88
2022-09-25T02:06:17.246Z,5.75
2022-09-25T02:09:03.650Z,5.20
2022-09-25T02:11:43.405Z,3.92
2022-09-25T02:14:46.843Z,5.93
2022-09-25T02:17:43.692Z,3.63
2022-09-25T02:20:29.430Z,3.50
2022-09-25T02:23:13.991Z,4.53
2022-09-25T02:25:46.455Z,5.15
2022-09-25T02:28:13.845Z,3.35
2022-09-25T02:30:41.341Z,6.60
2022-09-25T02:33:09.725Z,6.45
2022-09-25T02:35:38.468Z,4.43
2022-09-25T02:38:08.635Z,3.53
2022-09-25T02:40:48.633Z,5.20
2022-09-25T02:43:29.428Z,5.18
2022-09-25T02:46:21.808Z,3.85
2022-09-25T02:48:57.237Z,3.85
2022-09-25T02:51:40.638Z,4.05
2022-09-25T02:54:21.952Z,3.63
2022-09-25T02:57:06.845Z,4.75
2022-09-25T02:59:40.158Z,5.72
2022-09-25T03:02:10.024Z,8.98
2022-09-25T03:04:39.306Z,4.32
2022-09-25T03:07:07.100Z,3.83
2022-09-25T03:09:38.417Z,4.05
2022-09-25T03:12:06.291Z,6.40
2022-09-25T03:14:33.676Z,6.93
2022-09-25T03:17:04.976Z,5.25
2022-09-25T03:19:32.618Z,4.80
2022-09-25T03:22:00.542Z,5.43
2022-09-25T03:24:27.961Z,7.80
2022-09-25T03:26:55.464Z,12.63
2022-09-25T03:29:23.256Z,12.80
2022-09-25T03:31:52.514Z,7.30
2022-09-25T03:34:20.031Z,10.27
2022-09-25T03:36:47.794Z,12.05
2022-09-25T03:39:18.150Z,7.97
2022-09-25T03:41:46.089Z,10.68
2022-09-25T03:44:13.657Z,7.25
2022-09-25T03:46:41.064Z,8.75
2022-09-25T03:49:10.787Z,5.75
2022-09-25T03:51:39.186Z,10.95
2022-09-25T03:54:06.528Z,5.45
2022-09-25T03:56:34.423Z,9.00
2022-09-25T03:59:01.650Z,9.60
2022-09-25T04:01:29.423Z,7.47
2022-09-25T04:03:57.560Z,8.25
2022-09-25T04:06:26.878Z,5.10
2022-09-25T04:08:54.982Z,6.60
2022-09-25T04:11:24.487Z,7.30
2022-09-25T04:13:52.965Z,5.43
2022-09-25T04:16:23.621Z,6.82
2022-09-25T04:18:51.537Z,6.00
2022-09-25T04:21:24.979Z,4.05
2022-09-25T04:24:10.977Z,5.53
2022-09-25T04:26:39.336Z,4.88
2022-09-25T04:29:07.279Z,5.43
2022-09-25T04:31:36.336Z,4.63
2022-09-25T04:34:04.422Z,7.40
2022-09-25T04:36:31.852Z,4.93
2022-09-25T04:38:59.163Z,4.63
2022-09-25T04:41:29.483Z,8.15
2022-09-25T04:43:59.061Z,4.95
2022-09-25T04:46:26.537Z,5.85
2022-09-25T04:48:53.891Z,4.82
2022-09-25T04:51:22.217Z,4.97
2022-09-25T04:53:49.561Z,5.00
2022-09-25T04:56:17.047Z,6.50
2022-09-25T04:58:49.928Z,5.18
2022-09-25T05:01:19.304Z,4.97
2022-09-25T05:03:53.922Z,7.28
2022-09-25T05:06:23.651Z,5.25
2022-09-25T05:08:51.011Z,3.80
2022-09-25T05:11:19.138Z,5.72
2022-09-25T05:13:50.489Z,8.93
2022-09-25T05:16:17.818Z,7.50
2022-09-25T05:18:45.292Z,9.20
2022-09-25T05:21:12.600Z,4.93
2022-09-25T05:23:39.985Z,7.78
2022-09-25T05:26:07.375Z,7.53
2022-09-25T05:28:34.607Z,6.18
2022-09-25T05:31:04.116Z,4.57
2022-09-25T05:33:35.705Z,7.78
2022-09-25T05:36:05.524Z,7.47
2022-09-25T05:38:34.445Z,5.10
2022-09-25T05:41:06.197Z,6.25
2022-09-25T05:43:35.405Z,7.03
2022-09-25T05:46:02.834Z,5.05
2022-09-25T05:48:30.267Z,5.45
2022-09-25T05:50:58.422Z,5.38
2022-09-25T05:53:27.136Z,5.10
2022-09-25T05:55:58.419Z,7.47
2022-09-25T05:58:27.533Z,4.85
2022-09-25T06:00:55.611Z,5.47
2022-09-25T06:03:23.258Z,4.30
2022-09-25T06:05:50.770Z,4.72
2022-09-25T06:08:18.992Z,8.90
2022-09-25T06:10:54.082Z,6.60
2022-09-25T06:13:22.660Z,6.18
2022-09-25T06:15:53.054Z,7.10
2022-09-25T06:18:22.506Z,6.68
2022-09-25T06:20:50.615Z,6.32
2022-09-25T06:23:19.456Z,5.40
2022-09-25T06:25:46.855Z,7.15
2022-09-25T06:28:14.282Z,6.93
2022-09-25T06:30:41.862Z,12.98
2022-09-25T06:33:13.916Z,7.22
2022-09-25T06:35:43.773Z,5.55
2022-09-25T06:38:12.118Z,8.50
2022-09-25T06:40:41.430Z,9.55
2022-09-25T06:43:16.323Z,6.25
2022-09-25T06:45:44.501Z,6.43
2022-09-25T06:48:18.567Z,9.15
2022-09-25T06:50:52.917Z,5.13
2022-09-25T06:53:22.060Z,5.32
2022-09-25T06:55:50.221Z,5.25
2022-09-25T06:58:21.466Z,8.50
2022-09-25T07:00:50.665Z,9.07
2022-09-25T07:03:36.270Z,8.88
2022-09-25T07:06:06.306Z,8.25
2022-09-25T07:08:33.810Z,11.23
2022-09-25T07:11:02.508Z,10.20
2022-09-25T07:13:33.801Z,11.60
2022-09-25T07:16:06.126Z,15.77
2022-09-25T07:18:34.583Z,10.85
2022-09-25T07:21:07.896Z,14.02
2022-09-25T07:23:36.511Z,9.68
2022-09-25T07:26:22.597Z,12.93
2022-09-25T07:28:55.541Z,10.30
2022-09-25T07:31:26.542Z,8.18
2022-09-25T07:33:55.491Z,7.00
2022-09-25T07:36:22.996Z,5.10
2022-09-25T07:38:52.160Z,7.35
2022-09-25T07:41:22.955Z,5.18
2022-09-25T07:46:46.484Z,5.57
2022-09-25T07:49:14.490Z,5.88
2022-09-25T07:51:41.885Z,6.25
2022-09-25T07:54:09.412Z,7.78
2022-09-25T07:56:38.601Z,5.30
2022-09-25T07:59:06.293Z,11.15
2022-09-25T08:01:33.939Z,7.13
2022-09-25T08:04:02.914Z,6.28
2022-09-25T08:06:30.466Z,7.55
2022-09-25T08:08:59.119Z,7.88
2022-09-25T08:11:28.324Z,6.72
2022-09-25T08:13:55.705Z,4.68
2022-09-25T08:16:23.557Z,4.82
2022-09-25T08:18:51.019Z,6.28
2022-09-25T08:21:22.793Z,10.00
2022-09-25T08:23:56.355Z,5.88
2022-09-25T08:26:23.871Z,3.65
2022-09-25T08:28:52.297Z,5.57
2022-09-25T08:31:20.113Z,7.57
2022-09-25T08:33:48.038Z,6.88
2022-09-25T08:36:16.989Z,6.95
2022-09-25T08:38:44.695Z,4.50
2022-09-25T08:41:21.183Z,5.82
2022-09-25T08:44:06.652Z,5.95
2022-09-25T08:47:21.618Z,4.38
2022-09-25T08:50:09.817Z,9.63
2022-09-25T08:52:41.539Z,7.40
2022-09-25T08:55:18.429Z,9.95
2022-09-25T08:57:48.104Z,5.45
2022-09-25T09:00:22.102Z,7.22
2022-09-25T09:02:57.317Z,6.35
2022-09-25T09:08:00.874Z,3.88
2022-09-25T09:10:37.429Z,2.35
2022-09-25T09:13:26.125Z,4.05
2022-09-25T09:16:01.957Z,3.08
2022-09-25T09:18:43.318Z,8.82
2022-09-25T09:21:34.121Z,4.18
2022-09-25T09:24:26.678Z,4.05
2022-09-25T09:27:00.104Z,2.83
2022-09-25T09:29:52.086Z,3.15
2022-09-25T09:32:45.920Z,5.43
2022-09-25T09:35:57.203Z,6.13
2022-09-25T09:38:35.243Z,4.70
2022-09-25T09:41:33.765Z,4.82
2022-09-25T09:44:35.118Z,2.95
2022-09-25T09:47:26.489Z,5.38
2022-09-25T09:50:19.083Z,6.18
2022-09-25T09:52:52.051Z,20.40
2022-09-25T09:55:28.563Z,6.95
2022-09-25T09:58:05.400Z,2.75
2022-09-25T10:00:33.026Z,3.60
2022-09-25T10:03:11.797Z,3.63
2022-09-25T10:06:13.568Z,3.92
2022-09-25T10:08:42.393Z,7.63
2022-09-25T10:11:17.283Z,4.75
2022-09-25T10:13:47.167Z,3.75
2022-09-25T10:16:25.797Z,3.85
2022-09-25T10:18:53.102Z,3.80
2022-09-25T10:21:30.575Z,4.72
2022-09-25T10:23:59.625Z,7.00
2022-09-25T10:26:33.590Z,4.05
2022-09-25T10:29:03.658Z,3.05
2022-09-25T10:31:34.794Z,3.25
2022-09-25T10:34:07.404Z,6.55
2022-09-25T10:36:51.504Z,11.18
2022-09-25T10:39:45.743Z,8.00
2022-09-25T10:43:02.920Z,3.75
2022-09-25T10:45:33.613Z,5.05
2022-09-25T10:48:20.554Z,3.78
2022-09-25T10:51:08.812Z,3.95
2022-09-25T10:53:36.361Z,3.28
2022-09-25T10:56:15.122Z,4.80
2022-09-25T10:58:55.320Z,4.93
2022-09-25T11:01:35.783Z,6.60
2022-09-25T11:04:07.514Z,4.35
2022-09-25T11:06:35.781Z,7.32
2022-09-25T11:09:13.578Z,5.70
2022-09-25T11:11:41.705Z,4.53
2022-09-25T11:14:37.824Z,4.18
2022-09-25T11:17:27.160Z,4.80
2022-09-25T11:20:19.049Z,6.95
2022-09-25T11:23:26.389Z,3.80
2022-09-25T11:26:19.322Z,3.25
2022-09-25T11:29:04.798Z,6.47
2022-09-25T11:34:14.837Z,7.30
2022-09-25T11:36:45.782Z,3.50
2022-09-25T11:39:41.395Z,5.25
2022-09-25T11:42:52.261Z,7.60
2022-09-25T11:45:32.472Z,4.45
2022-09-25T11:48:22.990Z,3.35
2022-09-25T11:51:01.636Z,2.92
2022-09-25T11:53:57.244Z,2.95
2022-09-25T11:56:39.871Z,6.38
2022-09-25T11:59:38.602Z,5.25
2022-09-25T12:02:39.051Z,1.63
2022-09-25T12:05:23.644Z,4.35
2022-09-25T12:08:17.206Z,4.57
2022-09-25T12:10:53.792Z,10.40
2022-09-25T12:13:45.061Z,5.53
2022-09-25T12:16:28.990Z,7.50
2022-09-25T12:19:03.068Z,5.68
2022-09-25T12:21:45.567Z,4.72
2022-09-25T12:24:13.849Z,2.47
2022-09-25T12:26:51.453Z,5.10
2022-09-25T12:29:29.698Z,2.65
2022-09-25T12:32:37.642Z,7.05
2022-09-25T12:35:24.123Z,2.13
2022-09-25T12:38:02.468Z,4.25
2022-09-25T12:40:39.234Z,2.67
2022-09-25T12:43:33.825Z,3.08
2022-09-25T12:46:15.971Z,3.45
2022-09-25T12:49:32.044Z,4.57
2022-09-25T12:52:05.801Z,4.25
2022-09-25T12:54:47.928Z,4.47
2022-09-25T12:57:32.171Z,5.05
2022-09-25T13:00:15.719Z,4.13
2022-09-25T13:03:09.238Z,5.93
2022-09-25T13:05:45.637Z,7.18
2022-09-25T13:08:20.808Z,7.10
2022-09-25T13:13:38.142Z,3.88
2022-09-25T13:16:05.991Z,6.30
2022-09-25T13:18:35.944Z,10.32
2022-09-25T13:21:23.973Z,3.97
2022-09-25T13:23:54.443Z,4.88
2022-09-25T13:26:27.067Z,4.47
2022-09-25T13:29:07.981Z,4.35
2022-09-25T13:31:44.967Z,4.75
2022-09-25T13:34:16.271Z,5.95
2022-09-25T13:36:56.249Z,3.60
2022-09-25T13:39:47.138Z,6.60
2022-09-25T13:42:38.128Z,7.22
2022-09-25T13:45:25.223Z,3.40
2022-09-25T13:48:12.805Z,4.93
2022-09-25T13:50:43.331Z,2.63
2022-09-25T13:53:37.543Z,5.18
2022-09-25T13:56:12.874Z,7.45
2022-09-25T13:59:16.291Z,6.80
2022-09-25T14:01:47.935Z,7.00
2022-09-25T14:04:15.427Z,4.47
2022-09-25T14:06:45.029Z,8.27
2022-09-25T14:09:20.055Z,9.70
2022-09-25T14:14:42.936Z,5.10
2022-09-25T14:17:16.880Z,6.72
2022-09-25T14:19:49.294Z,5.32
2022-09-25T14:22:30.504Z,8.73
2022-09-25T14:24:57.965Z,5.93
2022-09-25T14:27:28.279Z,5.63
2022-09-25T14:30:11.975Z,6.22
2022-09-25T14:32:55.696Z,4.00
2022-09-25T14:35:41.809Z,7.57
2022-09-25T14:38:31.942Z,7.05
2022-09-25T14:41:23.712Z,8.77
2022-09-25T14:44:18.065Z,6.78
2022-09-25T14:46:49.947Z,6.70
2022-09-25T14:49:39.646Z,6.13
2022-09-25T14:52:11.409Z,5.57
2022-09-25T14:54:43.403Z,7.72
2022-09-25T14:57:12.207Z,7.47
2022-09-25T14:59:52.852Z,7.03
2022-09-25T15:02:27.092Z,4.78
2022-09-25T15:04:58.789Z,6.13
2022-09-25T15:07:28.227Z,7.43
2022-09-25T15:09:56.439Z,6.90
2022-09-25T15:12:34.195Z,4.95
2022-09-25T15:15:12.058Z,6.18
2022-09-25T15:17:55.039Z,6.53
2022-09-25T15:20:27.023Z,9.63
2022-09-25T15:22:59.826Z,6.80
2022-09-25T15:25:40.563Z,4.05
2022-09-25T15:28:10.291Z,11.88
2022-09-25T15:30:42.125Z,4.82
2022-09-25T15:33:24.009Z,10.43
2022-09-25T15:35:59.652Z,5.05
2022-09-25T15:38:34.996Z,7.95
2022-09-25T15:41:03.798Z,7.93
2022-09-25T15:43:31.722Z,7.55
2022-09-25T15:46:19.241Z,10.15
2022-09-25T15:48:58.136Z,9.80
2022-09-25T15:51:30.861Z,10.40
2022-09-25T15:53:59.369Z,9.27
2022-09-25T15:56:29.835Z,13.32
2022-09-25T15:59:01.813Z,11.13
2022-09-25T16:01:53.968Z,12.95
2022-09-25T16:04:42.664Z,11.95
2022-09-25T16:07:32.310Z,13.35
2022-09-25T16:10:03.533Z,14.75
2022-09-25T16:12:42.838Z,14.63
2022-09-25T16:15:31.792Z,20.85
2022-09-25T16:18:05.713Z,14.32
2022-09-25T16:20:36.823Z,11.20
2022-09-25T16:23:07.400Z,16.02
2022-09-25T16:25:37.646Z,17.52
2022-09-25T16:28:29.162Z,23.77
2022-09-25T16:31:01.489Z,17.23
2022-09-25T16:33:52.062Z,17.98
2022-09-25T16:36:19.885Z,26.85
2022-09-25T16:39:23.560Z,18.58
2022-09-25T16:41:51.684Z,22.70
2022-09-25T16:44:20.571Z,29.52
2022-09-25T16:47:20.750Z,25.13
2022-09-25T16:49:49.740Z,35.90
2022-09-25T16:52:20.816Z,39.45
2022-09-25T16:54:53.309Z,33.60
2022-09-25T16:57:22.817Z,32.53
2022-09-25T16:59:50.707Z,26.75
2022-09-25T17:02:36.295Z,20.40
2022-09-25T17:05:17.984Z,22.17
2022-09-25T17:07:50.773Z,17.80
2022-09-25T17:10:23.855Z,13.90
2022-09-25T17:12:54.135Z,20.08
2022-09-25T17:15:23.800Z,18.45
2022-09-25T17:17:54.557Z,13.75
2022-09-25T17:20:26.759Z,20.38
2022-09-25T17:22:55.112Z,14.18
2022-09-25T17:25:45.231Z,16.92
2022-09-25T17:28:13.391Z,17.23
2022-09-25T17:30:45.362Z,18.20
2022-09-25T17:33:18.193Z,16.70
2022-09-25T17:35:53.593Z,21.63
2022-09-25T17:40:52.529Z,17.45
2022-09-25T17:43:20.770Z,16.10
2022-09-25T17:45:51.172Z,16.23
2022-09-25T17:48:26.364Z,12.88
2022-09-25T17:51:00.360Z,13.55
2022-09-25T17:53:32.994Z,16.60
2022-09-25T17:56:01.735Z,16.60
2022-09-25T17:58:32.618Z,14.43
2022-09-25T18:01:01.989Z,26.40
2022-09-25T18:03:31.181Z,16.55
2022-09-25T18:06:01.973Z,15.02
2022-09-25T18:08:32.393Z,14.82
2022-09-25T18:11:00.010Z,13.27
2022-09-25T18:13:27.749Z,12.05
2022-09-25T18:16:02.295Z,15.02
2022-09-25T18:18:48.341Z,15.82
2022-09-25T18:21:34.664Z,13.55
2022-09-25T18:24:02.384Z,11.18
2022-09-25T18:26:31.576Z,9.27
2022-09-25T18:28:59.307Z,12.85
2022-09-25T18:31:27.062Z,12.38
2022-09-25T18:33:55.391Z,11.98
2022-09-25T18:36:23.234Z,16.83
2022-09-25T18:38:50.635Z,13.15
2022-09-25T18:41:18.112Z,20.98
2022-09-25T18:43:45.624Z,12.15
2022-09-25T18:46:13.436Z,19.30
2022-09-25T18:48:46.278Z,18.20
2022-09-25T18:51:14.541Z,15.00
2022-09-25T18:53:42.110Z,13.57
2022-09-25T18:56:09.872Z,21.02
2022-09-25T18:58:37.382Z,18.55
2022-09-25T19:01:07.789Z,23.08
2022-09-25T19:03:40.089Z,20.73
2022-09-25T19:06:10.675Z,19.70
2022-09-25T19:08:38.269Z,20.23
2022-09-25T19:11:14.181Z,19.15
2022-09-25T19:13:44.312Z,25.42
2022-09-25T19:16:11.859Z,16.65
2022-09-25T19:18:39.275Z,16.05
2022-09-25T19:21:07.039Z,25.73
2022-09-25T19:23:39.142Z,16.15
2022-09-25T19:26:06.722Z,25.95
2022-09-25T19:28:35.109Z,20.15
2022-09-25T19:31:06.148Z,18.63
2022-09-25T19:33:36.266Z,19.35
2022-09-25T19:36:07.751Z,19.83
2022-09-25T19:38:37.496Z,21.02
2022-09-25T19:41:13.065Z,19.50
2022-09-25T19:43:40.779Z,20.08
2022-09-25T19:46:08.723Z,14.60
2022-09-25T19:48:36.534Z,16.48
2022-09-25T19:51:08.300Z,14.70
2022-09-25T19:53:36.795Z,17.67
2022-09-25T19:56:04.264Z,14.38
2022-09-25T19:58:38.489Z,11.23
2022-09-25T20:01:14.560Z,13.52
2022-09-25T20:03:42.298Z,15.13
2022-09-25T20:06:12.182Z,11.80
2022-09-25T20:08:40.144Z,12.05
2022-09-25T20:11:22.248Z,15.57
2022-09-25T20:13:51.637Z,10.98
2022-09-25T20:16:25.423Z,12.90
2022-09-25T20:18:58.033Z,18.02
2022-09-25T20:21:27.159Z,21.30
2022-09-25T20:23:56.977Z,15.75
2022-09-25T20:26:25.496Z,14.18
2022-09-25T20:29:01.266Z,10.75
2022-09-25T20:31:31.126Z,10.30
2022-09-25T20:33:58.922Z,16.58
2022-09-25T20:36:26.465Z,12.50
2022-09-25T20:38:56.206Z,14.20
2022-09-25T20:41:25.356Z,17.45
2022-09-25T20:43:56.085Z,10.75
2022-09-25T20:46:24.683Z,12.00
2022-09-25T20:48:53.653Z,10.15
2022-09-25T20:51:27.321Z,12.30
2022-09-25T20:54:01.164Z,11.48
2022-09-25T20:56:32.281Z,10.48
2022-09-25T20:59:01.183Z,11.00
2022-09-25T21:01:32.028Z,11.63
2022-09-25T21:04:01.035Z,9.55
2022-09-25T21:06:32.807Z,12.23
2022-09-25T21:09:02.742Z,12.88
2022-09-25T21:11:31.966Z,8.60
2022-09-25T21:14:02.935Z,8.40
2022-09-25T21:16:32.821Z,8.73
2022-09-25T21:19:04.472Z,9.40
2022-09-25T21:21:33.524Z,6.95
2022-09-25T21:24:02.799Z,8.45
2022-09-25T21:26:31.798Z,11.38
2022-09-25T21:29:02.436Z,7.75
2022-09-25T21:31:36.904Z,10.32
2022-09-25T21:34:06.108Z,7.75
2022-09-25T21:36:33.867Z,6.93
2022-09-25T21:39:02.070Z,10.68
2022-09-25T21:41:30.650Z,8.60
2022-09-25T21:44:00.675Z,7.53
2022-09-25T21:46:29.243Z,7.10
2022-09-25T21:48:59.241Z,8.15
2022-09-25T21:51:29.808Z,8.95
2022-09-25T21:53:57.593Z,10.75
2022-09-25T21:56:30.216Z,7.00
2022-09-25T21:58:58.330Z,10.40
2022-09-25T22:01:28.397Z,8.30
2022-09-25T22:03:57.889Z,10.00
2022-09-25T22:06:35.337Z,9.38
2022-09-25T22:09:06.692Z,17.05
2022-09-25T22:11:35.009Z,14.50
2022-09-25T22:14:02.430Z,8.05
2022-09-25T22:16:32.941Z,9.60
2022-09-25T22:19:12.232Z,6.30
2022-09-25T22:21:40.520Z,9.43
2022-09-25T22:24:09.230Z,8.88
2022-09-25T22:26:38.660Z,7.32
2022-09-25T22:29:06.851Z,10.40
2022-09-25T22:31:36.401Z,8.00
2022-09-25T22:34:08.604Z,8.18
2022-09-25T22:36:36.716Z,9.98
2022-09-25T22:39:05.728Z,9.70
2022-09-25T22:41:33.671Z,8.75
2022-09-25T22:44:03.199Z,8.60
2022-09-25T22:46:31.131Z,8.50
2022-09-25T22:48:58.687Z,12.60
2022-09-25T22:51:26.577Z,10.80
2022-09-25T22:53:55.198Z,10.48
2022-09-25T22:56:28.605Z,10.27
2022-09-25T22:58:58.581Z,9.32
2022-09-25T23:01:38.761Z,9.48
2022-09-25T23:04:10.309Z,8.05
2022-09-25T23:06:38.748Z,7.80
2022-09-25T23:09:10.821Z,8.30
2022-09-25T23:11:38.360Z,10.77
2022-09-25T23:14:08.187Z,6.55
2022-09-25T23:16:35.998Z,7.07
2022-09-25T23:19:04.346Z,6.93
2022-09-25T23:21:32.468Z,5.65
2022-09-25T23:24:02.436Z,8.98
2022-09-25T23:26:30.371Z,7.57
2022-09-25T23:29:04.373Z,12.77
2022-09-25T23:31:33.173Z,8.45
2022-09-25T23:34:02.026Z,12.45
2022-09-25T23:36:30.551Z,8.02
2022-09-25T23:39:01.156Z,7.72
2022-09-25T23:41:31.709Z,11.35
2022-09-25T23:44:00.946Z,5.10
2022-09-25T23:46:31.287Z,5.07
2022-09-25T23:48:59.873Z,7.35
2022-09-25T23:51:27.801Z,6.95
2022-09-25T23:53:58.345Z,7.97
2022-09-25T23:56:29.607Z,9.75
2022-09-25T23:58:58.630Z,7.75
